sensor_id;sensor_type;location;lat;lon;timestamp;P1;durP1;ratioP1;P2;durP2;ratioP2
16270;SDS011;8243;49.048;8.396;2022-08-30T00:01:06;7.30;;;3.87;;
16270;SDS011;8243;49.048;8.396;2022-08-30T00:06:09;6.33;;;3.67;;
16270;SDS011;8243;49.048;8.396;2022-08-30T00:08:36;5.10;;;3.80;;
16270;SDS011;8243;49.048;8.396;2022-08-30T00:11:03;6.17;;;3.80;;
16270;SDS011;8243;49.048;8.396;2022-08-30T00:13:30;5.23;;;3.67;;
16270;SDS011;8243;49.048;8.396;2022-08-30T00:15:55;4.43;;;3.73;;
16270;SDS011;8243;49.048;8.396;2022-08-30T00:18:21;8.90;;;4.10;;
16270;SDS011;8243;49.048;8.396;2022-08-30T00:20:48;6.87;;;4.10;;
16270;SDS011;8243;49.048;8.396;2022-08-30T00:23:14;5.87;;;4.27;;
16270;SDS011;8243;49.048;8.396;2022-08-30T00:25:41;4.60;;;4.03;;
16270;SDS011;8243;49.048;8.396;2022-08-30T00:28:07;6.33;;;3.87;;
16270;SDS011;8243;49.048;8.396;2022-08-30T00:30:33;6.13;;;4.10;;
16270;SDS011;8243;49.048;8.396;2022-08-30T00:32:59;7.30;;;4.13;;
16270;SDS011;8243;49.048;8.396;2022-08-30T00:35:25;6.13;;;4.10;;
16270;SDS011;8243;49.048;8.396;2022-08-30T00:37:51;3.77;;;3.47;;
16270;SDS011;8243;49.048;8.396;2022-08-30T00:40:17;7.90;;;3.73;;
16270;SDS011;8243;49.048;8.396;2022-08-30T00:42:44;10.87;;;4.17;;
16270;SDS011;8243;49.048;8.396;2022-08-30T00:45:15;6.47;;;3.93;;
16270;SDS011;8243;49.048;8.396;2022-08-30T00:47:44;5.97;;;3.50;;
16270;SDS011;8243;49.048;8.396;2022-08-30T00:50:10;5.63;;;3.30;;
16270;SDS011;8243;49.048;8.396;2022-08-30T00:52:38;3.93;;;3.40;;
16270;SDS011;8243;49.048;8.396;2022-08-30T00:55:06;5.13;;;3.40;;
16270;SDS011;8243;49.048;8.396;2022-08-30T00:57:32;7.57;;;3.30;;
16270;SDS011;8243;49.048;8.396;2022-08-30T01:00:00;5.50;;;3.13;;
16270;SDS011;8243;49.048;8.396;2022-08-30T01:02:39;5.23;;;3.30;;
16270;SDS011;8243;49.048;8.396;2022-08-30T01:05:06;6.23;;;3.63;;
16270;SDS011;8243;49.048;8.396;2022-08-30T01:07:34;6.57;;;3.90;;
16270;SDS011;8243;49.048;8.396;2022-08-30T01:10:00;3.63;;;3.23;;
16270;SDS011;8243;49.048;8.396;2022-08-30T01:12:28;5.27;;;3.67;;
16270;SDS011;8243;49.048;8.396;2022-08-30T01:14:56;5.60;;;3.70;;
16270;SDS011;8243;49.048;8.396;2022-08-30T01:17:23;6.80;;;3.93;;
16270;SDS011;8243;49.048;8.396;2022-08-30T01:22:59;4.20;;;3.77;;
16270;SDS011;8243;49.048;8.396;2022-08-30T01:25:31;5.37;;;3.83;;
16270;SDS011;8243;49.048;8.396;2022-08-30T01:28:04;6.73;;;3.60;;
16270;SDS011;8243;49.048;8.396;2022-08-30T01:30:32;4.20;;;3.00;;
16270;SDS011;8243;49.048;8.396;2022-08-30T01:33:00;3.50;;;3.00;;
16270;SDS011;8243;49.048;8.396;2022-08-30T01:35:27;3.87;;;2.90;;
16270;SDS011;8243;49.048;8.396;2022-08-30T01:37:57;4.20;;;3.10;;
16270;SDS011;8243;49.048;8.396;2022-08-30T01:40:25;6.30;;;2.93;;
16270;SDS011;8243;49.048;8.396;2022-08-30T01:42:51;5.17;;;3.17;;
16270;SDS011;8243;49.048;8.396;2022-08-30T01:45:16;6.60;;;3.20;;
16270;SDS011;8243;49.048;8.396;2022-08-30T01:47:42;4.40;;;3.10;;
16270;SDS011;8243;49.048;8.396;2022-08-30T01:50:08;3.50;;;2.90;;
16270;SDS011;8243;49.048;8.396;2022-08-30T01:52:35;6.13;;;3.17;;
16270;SDS011;8243;49.048;8.396;2022-08-30T01:55:01;4.00;;;3.20;;
16270;SDS011;8243;49.048;8.396;2022-08-30T01:57:27;4.60;;;3.30;;
16270;SDS011;8243;49.048;8.396;2022-08-30T01:59:53;6.57;;;3.10;;
16270;SDS011;8243;49.048;8.396;2022-08-30T02:02:20;6.53;;;3.33;;
16270;SDS011;8243;49.048;8.396;2022-08-30T02:04:48;4.87;;;3.23;;
16270;SDS011;8243;49.048;8.396;2022-08-30T02:07:14;5.53;;;3.40;;
16270;SDS011;8243;49.048;8.396;2022-08-30T02:09:39;5.33;;;3.40;;
16270;SDS011;8243;49.048;8.396;2022-08-30T02:12:06;6.30;;;3.70;;
16270;SDS011;8243;49.048;8.396;2022-08-30T02:14:33;4.07;;;3.70;;
16270;SDS011;8243;49.048;8.396;2022-08-30T02:17:00;5.20;;;3.50;;
16270;SDS011;8243;49.048;8.396;2022-08-30T02:19:26;6.03;;;3.40;;
16270;SDS011;8243;49.048;8.396;2022-08-30T02:21:52;3.67;;;2.60;;
16270;SDS011;8243;49.048;8.396;2022-08-30T02:24:18;6.50;;;2.60;;
16270;SDS011;8243;49.048;8.396;2022-08-30T02:26:43;5.57;;;3.07;;
16270;SDS011;8243;49.048;8.396;2022-08-30T02:29:09;5.60;;;3.00;;
16270;SDS011;8243;49.048;8.396;2022-08-30T02:31:34;9.13;;;3.07;;
16270;SDS011;8243;49.048;8.396;2022-08-30T02:34:00;5.87;;;3.43;;
16270;SDS011;8243;49.048;8.396;2022-08-30T02:36:26;5.20;;;3.70;;
16270;SDS011;8243;49.048;8.396;2022-08-30T02:38:52;4.40;;;4.00;;
16270;SDS011;8243;49.048;8.396;2022-08-30T02:41:18;7.43;;;3.73;;
16270;SDS011;8243;49.048;8.396;2022-08-30T02:43:44;4.77;;;3.67;;
16270;SDS011;8243;49.048;8.396;2022-08-30T02:46:10;4.53;;;3.70;;
16270;SDS011;8243;49.048;8.396;2022-08-30T02:48:35;8.43;;;3.93;;
16270;SDS011;8243;49.048;8.396;2022-08-30T02:51:05;5.70;;;3.23;;
16270;SDS011;8243;49.048;8.396;2022-08-30T02:53:33;8.13;;;3.47;;
16270;SDS011;8243;49.048;8.396;2022-08-30T02:55:59;5.30;;;3.53;;
16270;SDS011;8243;49.048;8.396;2022-08-30T02:58:24;4.03;;;3.20;;
16270;SDS011;8243;49.048;8.396;2022-08-30T03:00:50;5.90;;;3.27;;
16270;SDS011;8243;49.048;8.396;2022-08-30T03:03:16;4.77;;;3.30;;
16270;SDS011;8243;49.048;8.396;2022-08-30T03:05:42;4.27;;;3.60;;
16270;SDS011;8243;49.048;8.396;2022-08-30T03:08:07;8.20;;;3.67;;
16270;SDS011;8243;49.048;8.396;2022-08-30T03:10:34;7.70;;;3.40;;
16270;SDS011;8243;49.048;8.396;2022-08-30T03:13:00;7.53;;;3.10;;
16270;SDS011;8243;49.048;8.396;2022-08-30T03:15:34;4.20;;;2.93;;
16270;SDS011;8243;49.048;8.396;2022-08-30T03:18:01;4.57;;;3.30;;
16270;SDS011;8243;49.048;8.396;2022-08-30T03:20:28;5.97;;;3.43;;
16270;SDS011;8243;49.048;8.396;2022-08-30T03:22:53;4.77;;;3.40;;
16270;SDS011;8243;49.048;8.396;2022-08-30T03:25:21;7.97;;;3.30;;
16270;SDS011;8243;49.048;8.396;2022-08-30T03:27:47;5.37;;;3.00;;
16270;SDS011;8243;49.048;8.396;2022-08-30T03:30:14;6.50;;;3.30;;
16270;SDS011;8243;49.048;8.396;2022-08-30T03:32:42;10.77;;;3.50;;
16270;SDS011;8243;49.048;8.396;2022-08-30T03:35:10;6.33;;;3.47;;
16270;SDS011;8243;49.048;8.396;2022-08-30T03:37:38;7.23;;;3.27;;
16270;SDS011;8243;49.048;8.396;2022-08-30T03:40:05;5.40;;;3.47;;
16270;SDS011;8243;49.048;8.396;2022-08-30T03:42:33;7.03;;;3.53;;
16270;SDS011;8243;49.048;8.396;2022-08-30T03:44:59;4.90;;;3.50;;
16270;SDS011;8243;49.048;8.396;2022-08-30T03:47:28;6.60;;;3.53;;
16270;SDS011;8243;49.048;8.396;2022-08-30T03:49:54;4.43;;;3.10;;
16270;SDS011;8243;49.048;8.396;2022-08-30T03:58:54;3.53;;;2.73;;
16270;SDS011;8243;49.048;8.396;2022-08-30T04:01:21;4.97;;;3.03;;
16270;SDS011;8243;49.048;8.396;2022-08-30T04:17:17;3.90;;;2.67;;
16270;SDS011;8243;49.048;8.396;2022-08-30T04:20:29;4.83;;;2.87;;
16270;SDS011;8243;49.048;8.396;2022-08-30T04:26:31;4.33;;;2.63;;
16270;SDS011;8243;49.048;8.396;2022-08-30T04:29:17;5.20;;;3.13;;
16270;SDS011;8243;49.048;8.396;2022-08-30T04:48:24;3.43;;;2.53;;
16270;SDS011;8243;49.048;8.396;2022-08-30T04:50:59;5.07;;;2.97;;
16270;SDS011;8243;49.048;8.396;2022-08-30T04:57:19;6.47;;;3.03;;
16270;SDS011;8243;49.048;8.396;2022-08-30T04:59:45;6.17;;;3.00;;
16270;SDS011;8243;49.048;8.396;2022-08-30T05:02:11;6.80;;;2.93;;
16270;SDS011;8243;49.048;8.396;2022-08-30T05:08:11;4.60;;;3.10;;
16270;SDS011;8243;49.048;8.396;2022-08-30T05:31:35;6.23;;;2.80;;
16270;SDS011;8243;49.048;8.396;2022-08-30T05:34:01;6.10;;;3.07;;
16270;SDS011;8243;49.048;8.396;2022-08-30T05:36:28;4.93;;;2.73;;
16270;SDS011;8243;49.048;8.396;2022-08-30T05:39:10;3.10;;;2.77;;
16270;SDS011;8243;49.048;8.396;2022-08-30T05:41:36;3.70;;;2.60;;
16270;SDS011;8243;49.048;8.396;2022-08-30T05:44:03;4.90;;;2.80;;
16270;SDS011;8243;49.048;8.396;2022-08-30T05:46:30;5.93;;;3.03;;
16270;SDS011;8243;49.048;8.396;2022-08-30T05:48:59;3.67;;;2.90;;
16270;SDS011;8243;49.048;8.396;2022-08-30T05:51:26;5.93;;;2.70;;
16270;SDS011;8243;49.048;8.396;2022-08-30T05:53:53;6.13;;;3.00;;
16270;SDS011;8243;49.048;8.396;2022-08-30T05:56:21;4.47;;;3.20;;
16270;SDS011;8243;49.048;8.396;2022-08-30T05:58:48;4.80;;;2.67;;
16270;SDS011;8243;49.048;8.396;2022-08-30T06:01:28;3.50;;;2.87;;
16270;SDS011;8243;49.048;8.396;2022-08-30T06:03:55;3.70;;;2.53;;
16270;SDS011;8243;49.048;8.396;2022-08-30T06:06:22;2.83;;;2.53;;
16270;SDS011;8243;49.048;8.396;2022-08-30T06:08:48;5.33;;;2.80;;
16270;SDS011;8243;49.048;8.396;2022-08-30T06:11:15;7.07;;;2.93;;
16270;SDS011;8243;49.048;8.396;2022-08-30T06:13:46;4.40;;;2.80;;
16270;SDS011;8243;49.048;8.396;2022-08-30T06:16:14;3.20;;;2.70;;
16270;SDS011;8243;49.048;8.396;2022-08-30T06:18:40;4.80;;;2.80;;
16270;SDS011;8243;49.048;8.396;2022-08-30T06:21:07;5.53;;;3.00;;
16270;SDS011;8243;49.048;8.396;2022-08-30T06:23:39;4.03;;;2.80;;
16270;SDS011;8243;49.048;8.396;2022-08-30T06:26:06;4.07;;;2.60;;
16270;SDS011;8243;49.048;8.396;2022-08-30T06:28:32;5.93;;;2.90;;
16270;SDS011;8243;49.048;8.396;2022-08-30T06:30:58;5.60;;;2.63;;
16270;SDS011;8243;49.048;8.396;2022-08-30T06:33:24;3.37;;;2.60;;
16270;SDS011;8243;49.048;8.396;2022-08-30T06:35:49;4.33;;;2.57;;
16270;SDS011;8243;49.048;8.396;2022-08-30T06:38:15;3.63;;;2.60;;
16270;SDS011;8243;49.048;8.396;2022-08-30T06:40:42;4.20;;;2.60;;
16270;SDS011;8243;49.048;8.396;2022-08-30T06:43:09;4.03;;;2.53;;
16270;SDS011;8243;49.048;8.396;2022-08-30T06:45:34;3.83;;;2.70;;
16270;SDS011;8243;49.048;8.396;2022-08-30T06:48:00;5.23;;;3.10;;
16270;SDS011;8243;49.048;8.396;2022-08-30T06:50:27;4.17;;;2.83;;
16270;SDS011;8243;49.048;8.396;2022-08-30T06:52:53;4.77;;;3.00;;
16270;SDS011;8243;49.048;8.396;2022-08-30T06:55:19;4.77;;;2.90;;
16270;SDS011;8243;49.048;8.396;2022-08-30T06:57:45;3.73;;;2.83;;
16270;SDS011;8243;49.048;8.396;2022-08-30T07:00:12;3.17;;;2.87;;
16270;SDS011;8243;49.048;8.396;2022-08-30T07:02:40;4.07;;;2.70;;
16270;SDS011;8243;49.048;8.396;2022-08-30T07:05:06;4.87;;;2.60;;
16270;SDS011;8243;49.048;8.396;2022-08-30T07:07:35;6.43;;;3.00;;
16270;SDS011;8243;49.048;8.396;2022-08-30T07:10:05;5.03;;;2.80;;
16270;SDS011;8243;49.048;8.396;2022-08-30T07:12:31;4.43;;;3.07;;
16270;SDS011;8243;49.048;8.396;2022-08-30T07:14:57;5.47;;;3.13;;
16270;SDS011;8243;49.048;8.396;2022-08-30T07:17:22;4.07;;;2.90;;
16270;SDS011;8243;49.048;8.396;2022-08-30T07:20:08;9.10;;;3.50;;
16270;SDS011;8243;49.048;8.396;2022-08-30T07:22:34;4.67;;;3.20;;
16270;SDS011;8243;49.048;8.396;2022-08-30T07:24:59;7.13;;;2.73;;
16270;SDS011;8243;49.048;8.396;2022-08-30T07:27:25;4.97;;;3.00;;
16270;SDS011;8243;49.048;8.396;2022-08-30T07:29:51;4.00;;;2.87;;
16270;SDS011;8243;49.048;8.396;2022-08-30T07:32:17;5.73;;;3.40;;
16270;SDS011;8243;49.048;8.396;2022-08-30T07:34:42;4.17;;;3.57;;
16270;SDS011;8243;49.048;8.396;2022-08-30T07:37:08;4.93;;;2.77;;
16270;SDS011;8243;49.048;8.396;2022-08-30T07:39:34;3.43;;;3.10;;
16270;SDS011;8243;49.048;8.396;2022-08-30T07:41:59;4.97;;;3.17;;
16270;SDS011;8243;49.048;8.396;2022-08-30T07:44:26;4.67;;;3.00;;
16270;SDS011;8243;49.048;8.396;2022-08-30T07:46:51;3.83;;;2.93;;
16270;SDS011;8243;49.048;8.396;2022-08-30T07:49:17;5.93;;;3.40;;
16270;SDS011;8243;49.048;8.396;2022-08-30T07:51:44;5.67;;;3.07;;
16270;SDS011;8243;49.048;8.396;2022-08-30T07:54:10;5.13;;;3.27;;
16270;SDS011;8243;49.048;8.396;2022-08-30T07:56:36;5.23;;;2.80;;
16270;SDS011;8243;49.048;8.396;2022-08-30T07:59:01;4.50;;;3.23;;
16270;SDS011;8243;49.048;8.396;2022-08-30T08:01:27;3.97;;;2.80;;
16270;SDS011;8243;49.048;8.396;2022-08-30T08:03:53;5.40;;;3.20;;
16270;SDS011;8243;49.048;8.396;2022-08-30T08:06:19;7.20;;;3.20;;
16270;SDS011;8243;49.048;8.396;2022-08-30T08:08:46;4.43;;;3.00;;
16270;SDS011;8243;49.048;8.396;2022-08-30T08:11:13;3.87;;;3.27;;
16270;SDS011;8243;49.048;8.396;2022-08-30T08:13:49;5.33;;;3.17;;
16270;SDS011;8243;49.048;8.396;2022-08-30T08:16:16;4.80;;;3.17;;
16270;SDS011;8243;49.048;8.396;2022-08-30T08:18:42;4.67;;;3.00;;
16270;SDS011;8243;49.048;8.396;2022-08-30T08:21:08;6.70;;;3.30;;
16270;SDS011;8243;49.048;8.396;2022-08-30T08:23:34;4.10;;;2.90;;
16270;SDS011;8243;49.048;8.396;2022-08-30T08:25:59;7.30;;;3.37;;
16270;SDS011;8243;49.048;8.396;2022-08-30T08:28:26;6.30;;;3.20;;
16270;SDS011;8243;49.048;8.396;2022-08-30T08:30:52;3.27;;;2.90;;
16270;SDS011;8243;49.048;8.396;2022-08-30T08:33:26;5.00;;;3.10;;
16270;SDS011;8243;49.048;8.396;2022-08-30T08:35:56;8.93;;;3.70;;
16270;SDS011;8243;49.048;8.396;2022-08-30T08:38:26;7.70;;;3.40;;
16270;SDS011;8243;49.048;8.396;2022-08-30T08:41:02;4.37;;;3.13;;
16270;SDS011;8243;49.048;8.396;2022-08-30T08:43:39;4.37;;;3.00;;
16270;SDS011;8243;49.048;8.396;2022-08-30T08:49:04;3.70;;;2.80;;
16270;SDS011;8243;49.048;8.396;2022-08-30T08:51:33;6.07;;;3.23;;
16270;SDS011;8243;49.048;8.396;2022-08-30T08:57:09;7.10;;;3.07;;
16270;SDS011;8243;49.048;8.396;2022-08-30T08:59:35;4.60;;;3.20;;
16270;SDS011;8243;49.048;8.396;2022-08-30T09:02:06;4.80;;;3.50;;
16270;SDS011;8243;49.048;8.396;2022-08-30T09:04:57;5.53;;;3.07;;
16270;SDS011;8243;49.048;8.396;2022-08-30T09:07:26;4.10;;;3.47;;
16270;SDS011;8243;49.048;8.396;2022-08-30T09:09:56;5.30;;;3.60;;
16270;SDS011;8243;49.048;8.396;2022-08-30T09:12:24;3.90;;;3.10;;
16270;SDS011;8243;49.048;8.396;2022-08-30T09:14:52;4.47;;;3.53;;
16270;SDS011;8243;49.048;8.396;2022-08-30T09:17:22;5.33;;;2.90;;
16270;SDS011;8243;49.048;8.396;2022-08-30T09:25:04;7.03;;;3.63;;
16270;SDS011;8243;49.048;8.396;2022-08-30T09:28:19;3.70;;;3.33;;
16270;SDS011;8243;49.048;8.396;2022-08-30T09:30:38;5.83;;;3.40;;
16270;SDS011;8243;49.048;8.396;2022-08-30T09:33:23;4.83;;;3.23;;
16270;SDS011;8243;49.048;8.396;2022-08-30T09:35:50;7.00;;;3.60;;
16270;SDS011;8243;49.048;8.396;2022-08-30T09:38:40;6.70;;;3.43;;
16270;SDS011;8243;49.048;8.396;2022-08-30T09:41:25;5.77;;;3.50;;
16270;SDS011;8243;49.048;8.396;2022-08-30T09:44:04;6.57;;;3.40;;
16270;SDS011;8243;49.048;8.396;2022-08-30T09:46:59;6.10;;;3.63;;
16270;SDS011;8243;49.048;8.396;2022-08-30T09:49:36;6.33;;;3.50;;
16270;SDS011;8243;49.048;8.396;2022-08-30T09:58:14;7.70;;;3.63;;
16270;SDS011;8243;49.048;8.396;2022-08-30T10:06:21;6.33;;;3.60;;
16270;SDS011;8243;49.048;8.396;2022-08-30T10:08:50;5.00;;;3.40;;
16270;SDS011;8243;49.048;8.396;2022-08-30T10:17:35;5.20;;;3.57;;
16270;SDS011;8243;49.048;8.396;2022-08-30T10:22:57;4.43;;;3.30;;
16270;SDS011;8243;49.048;8.396;2022-08-30T10:25:34;4.20;;;3.80;;
16270;SDS011;8243;49.048;8.396;2022-08-30T10:28:08;7.17;;;4.03;;
16270;SDS011;8243;49.048;8.396;2022-08-30T10:30:43;4.73;;;3.83;;
16270;SDS011;8243;49.048;8.396;2022-08-30T10:35:46;4.20;;;3.53;;
16270;SDS011;8243;49.048;8.396;2022-08-30T10:38:30;3.73;;;3.40;;
16270;SDS011;8243;49.048;8.396;2022-08-30T10:43:53;4.63;;;4.00;;
16270;SDS011;8243;49.048;8.396;2022-08-30T10:46:31;4.07;;;3.70;;
16270;SDS011;8243;49.048;8.396;2022-08-30T10:49:03;4.33;;;3.63;;
16270;SDS011;8243;49.048;8.396;2022-08-30T10:51:48;6.10;;;4.00;;
16270;SDS011;8243;49.048;8.396;2022-08-30T10:54:41;5.03;;;3.60;;
16270;SDS011;8243;49.048;8.396;2022-08-30T10:57:23;4.30;;;3.73;;
16270;SDS011;8243;49.048;8.396;2022-08-30T10:59:52;4.80;;;3.60;;
16270;SDS011;8243;49.048;8.396;2022-08-30T11:05:21;4.27;;;3.93;;
16270;SDS011;8243;49.048;8.396;2022-08-30T11:13:39;3.67;;;3.37;;
16270;SDS011;8243;49.048;8.396;2022-08-30T11:16:09;4.40;;;4.00;;
16270;SDS011;8243;49.048;8.396;2022-08-30T11:24:03;4.93;;;3.60;;
16270;SDS011;8243;49.048;8.396;2022-08-30T11:31:58;4.87;;;4.13;;
16270;SDS011;8243;49.048;8.396;2022-08-30T11:42:53;7.37;;;3.80;;
16270;SDS011;8243;49.048;8.396;2022-08-30T11:47:55;3.73;;;3.43;;
16270;SDS011;8243;49.048;8.396;2022-08-30T11:53:09;4.10;;;3.80;;
16270;SDS011;8243;49.048;8.396;2022-08-30T12:01:19;3.93;;;3.53;;
16270;SDS011;8243;49.048;8.396;2022-08-30T12:04:00;7.37;;;3.60;;
16270;SDS011;8243;49.048;8.396;2022-08-30T12:09:10;5.07;;;3.10;;
16270;SDS011;8243;49.048;8.396;2022-08-30T12:20:39;3.73;;;3.43;;
16270;SDS011;8243;49.048;8.396;2022-08-30T12:23:17;4.67;;;3.27;;
16270;SDS011;8243;49.048;8.396;2022-08-30T12:25:47;4.00;;;3.70;;
16270;SDS011;8243;49.048;8.396;2022-08-30T12:28:20;4.97;;;3.80;;
16270;SDS011;8243;49.048;8.396;2022-08-30T12:30:52;5.60;;;4.13;;
16270;SDS011;8243;49.048;8.396;2022-08-30T12:33:28;3.60;;;3.30;;
16270;SDS011;8243;49.048;8.396;2022-08-30T12:35:58;3.73;;;3.43;;
16270;SDS011;8243;49.048;8.396;2022-08-30T12:38:25;4.43;;;3.90;;
16270;SDS011;8243;49.048;8.396;2022-08-30T12:40:53;6.97;;;4.07;;
16270;SDS011;8243;49.048;8.396;2022-08-30T12:43:33;4.50;;;4.10;;
16270;SDS011;8243;49.048;8.396;2022-08-30T12:46:04;6.43;;;3.73;;
16270;SDS011;8243;49.048;8.396;2022-08-30T12:48:35;4.70;;;4.20;;
16270;SDS011;8243;49.048;8.396;2022-08-30T12:51:03;3.80;;;3.50;;
16270;SDS011;8243;49.048;8.396;2022-08-30T12:53:33;7.13;;;3.90;;
16270;SDS011;8243;49.048;8.396;2022-08-30T13:09:25;3.77;;;3.50;;
16270;SDS011;8243;49.048;8.396;2022-08-30T13:11:54;4.93;;;3.70;;
16270;SDS011;8243;49.048;8.396;2022-08-30T13:14:36;5.23;;;3.90;;
16270;SDS011;8243;49.048;8.396;2022-08-30T13:17:04;7.60;;;3.57;;
16270;SDS011;8243;49.048;8.396;2022-08-30T13:19:34;5.30;;;3.70;;
16270;SDS011;8243;49.048;8.396;2022-08-30T13:24:53;4.70;;;4.20;;
16270;SDS011;8243;49.048;8.396;2022-08-30T13:27:22;4.20;;;3.80;;
16270;SDS011;8243;49.048;8.396;2022-08-30T13:29:48;4.10;;;3.70;;
16270;SDS011;8243;49.048;8.396;2022-08-30T13:32:13;6.20;;;4.17;;
16270;SDS011;8243;49.048;8.396;2022-08-30T13:34:40;4.17;;;3.60;;
16270;SDS011;8243;49.048;8.396;2022-08-30T13:37:06;4.13;;;3.77;;
16270;SDS011;8243;49.048;8.396;2022-08-30T13:39:38;4.07;;;3.67;;
16270;SDS011;8243;49.048;8.396;2022-08-30T13:42:05;4.50;;;3.90;;
16270;SDS011;8243;49.048;8.396;2022-08-30T13:44:31;6.33;;;4.20;;
16270;SDS011;8243;49.048;8.396;2022-08-30T13:46:56;5.03;;;3.50;;
16270;SDS011;8243;49.048;8.396;2022-08-30T13:49:32;4.13;;;3.70;;
16270;SDS011;8243;49.048;8.396;2022-08-30T13:51:59;4.27;;;3.83;;
16270;SDS011;8243;49.048;8.396;2022-08-30T13:54:27;5.07;;;3.90;;
16270;SDS011;8243;49.048;8.396;2022-08-30T13:56:53;7.50;;;3.87;;
16270;SDS011;8243;49.048;8.396;2022-08-30T13:59:19;4.10;;;3.80;;
16270;SDS011;8243;49.048;8.396;2022-08-30T14:01:47;4.03;;;3.63;;
16270;SDS011;8243;49.048;8.396;2022-08-30T14:04:15;4.87;;;3.83;;
16270;SDS011;8243;49.048;8.396;2022-08-30T14:06:41;5.97;;;4.17;;
16270;SDS011;8243;49.048;8.396;2022-08-30T14:09:07;5.03;;;4.00;;
16270;SDS011;8243;49.048;8.396;2022-08-30T14:11:34;4.57;;;4.13;;
16270;SDS011;8243;49.048;8.396;2022-08-30T14:14:03;9.07;;;4.10;;
16270;SDS011;8243;49.048;8.396;2022-08-30T14:16:31;4.33;;;3.93;;
16270;SDS011;8243;49.048;8.396;2022-08-30T14:18:57;7.03;;;4.10;;
16270;SDS011;8243;49.048;8.396;2022-08-30T14:21:24;6.13;;;4.27;;
16270;SDS011;8243;49.048;8.396;2022-08-30T14:23:51;4.30;;;3.90;;
16270;SDS011;8243;49.048;8.396;2022-08-30T14:26:28;5.07;;;4.00;;
16270;SDS011;8243;49.048;8.396;2022-08-30T14:28:56;6.20;;;3.80;;
16270;SDS011;8243;49.048;8.396;2022-08-30T14:31:22;5.93;;;4.10;;
16270;SDS011;8243;49.048;8.396;2022-08-30T14:34:01;6.93;;;4.00;;
16270;SDS011;8243;49.048;8.396;2022-08-30T14:39:27;4.77;;;3.50;;
16270;SDS011;8243;49.048;8.396;2022-08-30T14:41:53;5.27;;;4.20;;
16270;SDS011;8243;49.048;8.396;2022-08-30T14:44:19;4.30;;;3.83;;
16270;SDS011;8243;49.048;8.396;2022-08-30T14:46:46;4.97;;;3.97;;
16270;SDS011;8243;49.048;8.396;2022-08-30T14:49:12;4.80;;;3.97;;
16270;SDS011;8243;49.048;8.396;2022-08-30T14:51:39;7.37;;;3.97;;
16270;SDS011;8243;49.048;8.396;2022-08-30T14:54:06;4.47;;;4.07;;
16270;SDS011;8243;49.048;8.396;2022-08-30T14:56:32;4.03;;;3.63;;
16270;SDS011;8243;49.048;8.396;2022-08-30T14:58:58;4.47;;;3.63;;
16270;SDS011;8243;49.048;8.396;2022-08-30T15:01:29;3.97;;;3.57;;
16270;SDS011;8243;49.048;8.396;2022-08-30T15:03:56;3.77;;;3.30;;
16270;SDS011;8243;49.048;8.396;2022-08-30T15:06:22;5.40;;;3.50;;
16270;SDS011;8243;49.048;8.396;2022-08-30T15:08:48;4.00;;;3.57;;
16270;SDS011;8243;49.048;8.396;2022-08-30T15:11:15;6.20;;;3.93;;
16270;SDS011;8243;49.048;8.396;2022-08-30T15:13:43;6.07;;;4.20;;
16270;SDS011;8243;49.048;8.396;2022-08-30T15:16:09;6.97;;;3.70;;
16270;SDS011;8243;49.048;8.396;2022-08-30T15:18:42;5.97;;;3.80;;
16270;SDS011;8243;49.048;8.396;2022-08-30T15:21:20;6.30;;;3.73;;
16270;SDS011;8243;49.048;8.396;2022-08-30T15:24:02;4.20;;;3.80;;
16270;SDS011;8243;49.048;8.396;2022-08-30T15:26:29;3.30;;;3.03;;
16270;SDS011;8243;49.048;8.396;2022-08-30T15:28:55;3.53;;;2.90;;
16270;SDS011;8243;49.048;8.396;2022-08-30T15:31:22;3.60;;;3.30;;
16270;SDS011;8243;49.048;8.396;2022-08-30T15:33:52;6.43;;;3.70;;
16270;SDS011;8243;49.048;8.396;2022-08-30T15:36:18;3.70;;;3.40;;
16270;SDS011;8243;49.048;8.396;2022-08-30T15:38:50;3.73;;;3.43;;
16270;SDS011;8243;49.048;8.396;2022-08-30T15:41:17;4.37;;;3.70;;
16270;SDS011;8243;49.048;8.396;2022-08-30T15:43:43;4.57;;;3.70;;
16270;SDS011;8243;49.048;8.396;2022-08-30T15:46:29;3.47;;;3.17;;
16270;SDS011;8243;49.048;8.396;2022-08-30T15:49:00;4.73;;;3.60;;
16270;SDS011;8243;49.048;8.396;2022-08-30T15:51:31;4.53;;;3.37;;
16270;SDS011;8243;49.048;8.396;2022-08-30T15:53:59;4.80;;;3.53;;
16270;SDS011;8243;49.048;8.396;2022-08-30T15:56:27;4.10;;;3.70;;
16270;SDS011;8243;49.048;8.396;2022-08-30T15:58:56;7.63;;;3.77;;
16270;SDS011;8243;49.048;8.396;2022-08-30T16:01:22;4.47;;;3.60;;
16270;SDS011;8243;49.048;8.396;2022-08-30T16:03:48;4.77;;;3.80;;
16270;SDS011;8243;49.048;8.396;2022-08-30T16:06:16;6.00;;;3.70;;
16270;SDS011;8243;49.048;8.396;2022-08-30T16:08:44;3.67;;;3.37;;
16270;SDS011;8243;49.048;8.396;2022-08-30T16:11:11;4.30;;;3.90;;
16270;SDS011;8243;49.048;8.396;2022-08-30T16:13:39;5.73;;;3.47;;
16270;SDS011;8243;49.048;8.396;2022-08-30T16:16:06;4.40;;;3.73;;
16270;SDS011;8243;49.048;8.396;2022-08-30T16:18:33;4.70;;;3.80;;
16270;SDS011;8243;49.048;8.396;2022-08-30T16:21:07;4.40;;;3.20;;
16270;SDS011;8243;49.048;8.396;2022-08-30T16:23:37;3.20;;;3.00;;
16270;SDS011;8243;49.048;8.396;2022-08-30T16:26:03;3.80;;;3.40;;
16270;SDS011;8243;49.048;8.396;2022-08-30T16:28:29;3.77;;;3.40;;
16270;SDS011;8243;49.048;8.396;2022-08-30T16:30:55;5.63;;;3.63;;
16270;SDS011;8243;49.048;8.396;2022-08-30T16:33:21;6.63;;;3.77;;
16270;SDS011;8243;49.048;8.396;2022-08-30T16:35:53;3.97;;;3.40;;
16270;SDS011;8243;49.048;8.396;2022-08-30T16:38:21;4.60;;;3.47;;
16270;SDS011;8243;49.048;8.396;2022-08-30T16:40:48;6.27;;;3.50;;
16270;SDS011;8243;49.048;8.396;2022-08-30T16:43:14;8.03;;;3.90;;
16270;SDS011;8243;49.048;8.396;2022-08-30T16:45:41;6.23;;;3.63;;
16270;SDS011;8243;49.048;8.396;2022-08-30T16:48:07;9.43;;;3.50;;
16270;SDS011;8243;49.048;8.396;2022-08-30T16:50:34;3.90;;;3.50;;
16270;SDS011;8243;49.048;8.396;2022-08-30T16:53:01;5.07;;;3.60;;
16270;SDS011;8243;49.048;8.396;2022-08-30T16:55:27;5.27;;;3.73;;
16270;SDS011;8243;49.048;8.396;2022-08-30T16:57:52;5.30;;;3.70;;
16270;SDS011;8243;49.048;8.396;2022-08-30T17:00:18;4.97;;;3.80;;
16270;SDS011;8243;49.048;8.396;2022-08-30T17:02:43;5.43;;;3.80;;
16270;SDS011;8243;49.048;8.396;2022-08-30T17:05:09;7.30;;;3.93;;
16270;SDS011;8243;49.048;8.396;2022-08-30T17:07:35;4.97;;;3.50;;
16270;SDS011;8243;49.048;8.396;2022-08-30T17:10:08;4.00;;;3.17;;
16270;SDS011;8243;49.048;8.396;2022-08-30T17:12:33;3.63;;;3.23;;
16270;SDS011;8243;49.048;8.396;2022-08-30T17:14:59;5.40;;;3.60;;
16270;SDS011;8243;49.048;8.396;2022-08-30T17:17:25;4.07;;;3.50;;
16270;SDS011;8243;49.048;8.396;2022-08-30T17:19:50;4.30;;;3.90;;
16270;SDS011;8243;49.048;8.396;2022-08-30T17:22:16;5.77;;;3.70;;
16270;SDS011;8243;49.048;8.396;2022-08-30T17:24:41;4.20;;;3.47;;
16270;SDS011;8243;49.048;8.396;2022-08-30T17:27:07;5.37;;;3.50;;
16270;SDS011;8243;49.048;8.396;2022-08-30T17:29:32;4.60;;;3.60;;
16270;SDS011;8243;49.048;8.396;2022-08-30T17:31:58;6.33;;;3.53;;
16270;SDS011;8243;49.048;8.396;2022-08-30T17:34:24;4.37;;;3.60;;
16270;SDS011;8243;49.048;8.396;2022-08-30T17:36:51;4.03;;;3.60;;
16270;SDS011;8243;49.048;8.396;2022-08-30T17:39:18;4.10;;;3.70;;
16270;SDS011;8243;49.048;8.396;2022-08-30T17:41:44;4.70;;;3.60;;
16270;SDS011;8243;49.048;8.396;2022-08-30T17:44:11;4.47;;;3.37;;
16270;SDS011;8243;49.048;8.396;2022-08-30T17:46:37;7.67;;;3.63;;
16270;SDS011;8243;49.048;8.396;2022-08-30T17:49:03;3.60;;;3.30;;
16270;SDS011;8243;49.048;8.396;2022-08-30T17:51:29;5.30;;;3.50;;
16270;SDS011;8243;49.048;8.396;2022-08-30T17:53:56;4.43;;;3.80;;
16270;SDS011;8243;49.048;8.396;2022-08-30T17:56:24;6.07;;;3.60;;
16270;SDS011;8243;49.048;8.396;2022-08-30T17:58:51;5.97;;;3.60;;
16270;SDS011;8243;49.048;8.396;2022-08-30T18:01:17;4.90;;;4.07;;
16270;SDS011;8243;49.048;8.396;2022-08-30T18:03:44;5.37;;;3.93;;
16270;SDS011;8243;49.048;8.396;2022-08-30T18:06:10;4.27;;;3.87;;
16270;SDS011;8243;49.048;8.396;2022-08-30T18:08:36;6.73;;;3.67;;
16270;SDS011;8243;49.048;8.396;2022-08-30T18:11:02;6.50;;;3.73;;